Time;durP1;ratioP1;P1;durP2;ratioP2;P2;SDS_P1;SDS_P2;PMS_P1;PMS_P2;Temp;Humidity;BMP_temperature;BMP_pressure;BME280_temperature;BME280_humidity;BME280_pressure;Samples;Min_cycle;Max_cycle;Signal;HPM_P1;HPM_P2
2022/11/30 00:00:59;;;;;;;37.63;14.50;;;;;;;-1.42;94.37;99338.50;1670989;85;25754;-71
2022/11/30 00:03:26;;;;;;;34.63;13.25;;;;;;;-1.46;94.30;99335.44;1670651;85;25684;-67
2022/11/30 00:05:52;;;;;;;30.52;14.68;;;;;;;-1.45;94.28;99338.92;1670630;85;27470;-70
2022/11/30 00:08:19;;;;;;;41.45;17.62;;;;;;;-1.45;94.41;99338.92;1670447;85;25679;-81
2022/11/30 00:10:45;;;;;;;71.17;23.98;;;;;;;-1.42;94.51;99331.27;1670960;85;25729;-70
2022/11/30 00:13:12;;;;;;;41.80;16.45;;;;;;;-1.41;94.28;99334.78;1670557;85;25821;-81
2022/11/30 00:15:39;;;;;;;41.77;16.95;;;;;;;-1.35;94.49;99337.95;1670662;85;25457;-69
2022/11/30 00:18:07;;;;;;;40.63;18.02;;;;;;;-1.33;94.38;99343.91;1670860;85;27436;-78
2022/11/30 00:20:34;;;;;;;36.00;15.15;;;;;;;-1.30;94.29;99343.98;1670538;85;25471;-74
2022/11/30 00:23:01;;;;;;;34.25;13.32;;;;;;;-1.29;94.29;99352.38;1670719;85;25689;-67
2022/11/30 00:25:29;;;;;;;29.12;11.22;;;;;;;-1.31;94.03;99351.77;1670677;85;25843;-71
2022/11/30 00:27:59;;;;;;;53.80;18.35;;;;;;;-1.33;94.17;99339.88;1670821;85;25599;-78
2022/11/30 00:30:26;;;;;;;44.80;16.90;;;;;;;-1.30;94.29;99348.02;1671002;85;27461;-75
2022/11/30 00:32:57;;;;;;;35.17;15.50;;;;;;;-1.29;94.16;99344.31;1670733;85;25674;-67
2022/11/30 00:35:25;;;;;;;43.40;18.45;;;;;;;-1.30;94.26;99352.05;1670932;85;25687;-67
2022/11/30 00:37:52;;;;;;;30.55;12.23;;;;;;;-1.28;94.28;99354.85;1670753;85;25777;-74
2022/11/30 00:40:19;;;;;;;34.13;14.28;;;;;;;-1.27;94.27;99353.80;1670788;85;25682;-78
2022/11/30 00:42:46;;;;;;;38.67;14.23;;;;;;;-1.31;94.11;99355.80;1670820;85;28339;-79
2022/11/30 00:45:14;;;;;;;43.23;17.10;;;;;;;-1.32;94.34;99349.58;1668686;85;25662;-69
2022/11/30 00:47:40;;;;;;;55.65;23.42;;;;;;;-1.31;94.31;99354.45;1637612;87;25451;-75
2022/11/30 00:50:08;;;;;;;47.98;22.27;;;;;;;-1.30;94.34;99354.23;1637304;87;25796;-82
2022/11/30 00:52:35;;;;;;;46.02;18.67;;;;;;;-1.27;94.48;99361.03;1637904;87;25630;-74
2022/11/30 00:55:01;;;;;;;39.03;16.87;;;;;;;-1.25;94.58;99363.00;1637589;87;27471;-76
2022/11/30 00:57:28;;;;;;;28.92;10.75;;;;;;;-1.25;94.46;99368.37;1637471;87;25705;-68
2022/11/30 00:59:54;;;;;;;39.45;16.45;;;;;;;-1.32;94.37;99364.38;1637677;87;25455;-67
2022/11/30 01:02:21;;;;;;;45.03;21.15;;;;;;;-1.35;94.49;99368.04;1637535;87;25825;-68
2022/11/30 01:04:47;;;;;;;38.17;13.75;;;;;;;-1.36;94.59;99369.09;1637778;87;25685;-70
2022/11/30 01:07:13;;;;;;;36.80;15.23;;;;;;;-1.34;94.86;99366.98;1637670;87;29501;-68
2022/11/30 01:09:40;;;;;;;44.93;19.80;;;;;;;-1.35;94.90;99354.08;1637833;87;25623;-77
2022/11/30 01:12:07;;;;;;;48.05;18.65;;;;;;;-1.33;94.88;99360.59;1637541;87;25688;-69
2022/11/30 01:14:33;;;;;;;49.98;20.65;;;;;;;-1.30;94.98;99366.34;1637557;87;25813;-79
2022/11/30 01:16:59;;;;;;;40.17;14.50;;;;;;;-1.26;94.87;99365.39;1637525;87;25463;-67
2022/11/30 01:19:26;;;;;;;50.40;19.15;;;;;;;-1.24;94.73;99362.48;1637563;87;26734;-73
2022/11/30 01:21:52;;;;;;;60.63;25.75;;;;;;;-1.23;94.85;99355.55;1637475;87;25653;-68
2022/11/30 01:24:19;;;;;;;73.65;31.82;;;;;;;-1.21;94.90;99350.75;1637693;87;25602;-82
2022/11/30 01:26:45;;;;;;;39.50;15.95;;;;;;;-1.21;94.75;99352.09;1637533;87;26255;-67
2022/11/30 01:29:11;;;;;;;46.13;18.30;;;;;;;-1.16;94.86;99354.97;1637559;87;25693;-79
2022/11/30 01:31:38;;;;;;;38.00;15.88;;;;;;;-1.18;94.60;99346.82;1637460;87;27410;-70
2022/11/30 01:34:04;;;;;;;50.98;19.40;;;;;;;-1.23;94.59;99351.52;1637484;87;25724;-68
2022/11/30 01:36:32;;;;;;;24.57;11.65;;;;;;;-1.23;94.78;99354.20;1637574;87;25653;-77
2022/11/30 01:38:58;;;;;;;46.23;15.98;;;;;;;-1.23;94.63;99358.23;1637549;87;25793;-67
2022/11/30 01:41:31;;;;;;;51.85;19.02;;;;;;;-1.24;94.48;99351.19;1637651;87;25660;-68
2022/11/30 01:44:15;;;;;;;26.37;11.48;;;;;;;-1.25;94.55;99346.86;1637723;87;26746;-70
2022/11/30 01:46:47;;;;;;;47.78;17.10;;;;;;;-1.30;94.51;99339.95;1661216;85;25885;-67
2022/11/30 01:49:18;;;;;;;36.42;12.80;;;;;;;-1.33;94.64;99346.61;1637568;87;25708;-68
2022/11/30 01:51:51;;;;;;;;;;;;;;;-1.34;94.92;99346.82;1639979;87;25747;-78
2022/11/30 01:54:34;;;;;;;26.40;10.82;;;;;;;-1.35;94.99;99350.05;1610167;89;25460;-67
2022/11/30 01:57:08;;;;;;;42.13;16.90;;;;;;;-1.42;94.90;99337.98;1637420;87;27533;-76
2022/11/30 01:59:36;;;;;;;34.98;12.68;;;;;;;-1.43;95.12;99342.23;1635652;87;26037;-78
2022/11/30 02:02:02;;;;;;;41.90;15.98;;;;;;;-1.41;95.28;99342.85;1637509;87;25534;-70
2022/11/30 02:04:32;;;;;;;52.85;18.10;;;;;;;-1.39;95.17;99344.27;1637204;87;25782;-68
2022/11/30 02:07:01;;;;;;;42.33;16.00;;;;;;;-1.35;95.19;99351.91;1636161;87;25705;-70
2022/11/30 02:09:30;;;;;;;45.63;16.48;;;;;;;-1.36;95.06;99348.38;1637748;87;27417;-70
2022/11/30 02:11:57;;;;;;;56.42;20.45;;;;;;;-1.35;95.04;99353.25;1637478;87;25641;-68
2022/11/30 02:14:47;;;;;;;50.73;17.20;;;;;;;-1.29;95.17;99359.91;1637499;87;25748;-69
2022/11/30 02:17:37;;;;;;;36.90;13.90;;;;;;;-1.30;94.89;99356.92;1637775;87;25721;-68
2022/11/30 02:20:30;;;;;;;40.15;14.43;;;;;;;-1.31;95.00;99353.11;1659775;86;25464;-82
2022/11/30 02:23:41;;;;;;;43.48;14.70;;;;;;;-1.35;94.91;99358.12;1660373;86;27393;-74
2022/11/30 02:27:02;;;;;;;35.60;15.58;;;;;;;-1.32;95.12;99350.12;1586202;90;25810;-72
2022/11/30 02:29:51;;;;;;;44.00;13.75;;;;;;;-1.30;95.11;99352.89;1619408;88;25590;-67
2022/11/30 02:32:22;;;;;;;37.88;14.23;;;;;;;-1.25;94.90;99353.58;1618789;88;25609;-77
2022/11/30 02:34:51;;;;;;;41.30;13.90;;;;;;;-1.21;94.92;99354.78;1619319;88;25834;-79
2022/11/30 02:37:19;;;;;;;56.55;19.10;;;;;;;-1.17;94.90;99348.45;1619567;88;28177;-79
2022/11/30 02:39:45;;;;;;;41.40;14.95;;;;;;;-1.11;94.90;99354.82;1619538;88;25703;-68
2022/11/30 02:42:13;;;;;;;42.45;15.15;;;;;;;-1.13;94.54;99352.34;1619168;88;25709;-69
2022/11/30 02:44:45;;;;;;;29.15;10.38;;;;;;;-1.18;94.35;99360.27;1619313;88;27840;-74
2022/11/30 02:47:30;;;;;;;39.23;14.95;;;;;;;-1.24;94.31;99369.20;1610413;88;25857;-76
2022/11/30 02:50:17;;;;;;;34.95;13.68;;;;;;;-1.31;94.14;99363.86;1610979;89;27872;-67
2022/11/30 02:52:45;;;;;;;41.18;14.10;;;;;;;-1.36;94.13;99377.96;1610419;88;27226;-80
2022/11/30 02:55:16;;;;;;;24.92;10.30;;;;;;;-1.34;94.55;99375.05;1610562;89;25763;-72
2022/11/30 02:57:42;;;;;;;;;;;;;;;-1.35;94.54;99376.11;1655047;85;25793;-75
2022/11/30 03:00:11;;;;;;;41.00;15.53;;;;;;;-1.37;94.42;99380.36;1672771;85;25397;-79
2022/11/30 03:02:39;;;;;;;37.38;13.83;;;;;;;-1.34;94.62;99389.84;1672871;85;27391;-68
2022/11/30 03:05:07;;;;;;;30.77;10.25;;;;;;;-1.28;94.60;99387.63;1672861;85;25724;-67
2022/11/30 03:07:34;;;;;;;27.10;10.72;;;;;;;-1.27;94.27;99385.23;1672978;85;25690;-74
2022/11/30 03:10:00;;;;;;;40.58;13.88;;;;;;;-1.32;94.23;99391.27;1672797;85;25814;-69
2022/11/30 03:12:27;;;;;;;45.90;14.78;;;;;;;-1.33;94.32;99388.83;1672687;85;25660;-74
2022/11/30 03:14:53;;;;;;;41.90;15.05;;;;;;;-1.29;94.38;99395.41;1643896;85;27579;-67
2022/11/30 03:17:20;;;;;;;30.25;10.65;;;;;;;-1.26;94.36;99396.32;1672837;85;25698;-67
2022/11/30 03:19:46;;;;;;;36.48;14.73;;;;;;;-1.28;94.10;99384.95;1672729;85;25478;-67
2022/11/30 03:22:13;;;;;;;36.20;13.90;;;;;;;-1.32;94.11;99385.89;1672503;85;25826;-67
2022/11/30 03:24:39;;;;;;;39.18;13.83;;;;;;;-1.33;94.12;99395.01;1672824;85;25697;-74
2022/11/30 03:27:05;;;;;;;33.50;11.73;;;;;;;-1.35;94.29;99401.66;1672571;85;27522;-69
2022/11/30 03:29:32;;;;;;;22.37;8.40;;;;;;;-1.36;94.28;99391.41;1672409;85;25440;-78
2022/11/30 03:31:58;;;;;;;43.30;15.25;;;;;;;-1.40;94.35;99391.55;1672943;85;25494;-67
2022/11/30 03:34:26;;;;;;;27.22;9.95;;;;;;;-1.39;94.45;99403.94;1672513;85;25789;-67
2022/11/30 03:36:54;;;;;;;27.37;10.93;;;;;;;-1.43;94.56;99404.08;1672574;85;25448;-72
2022/11/30 03:39:22;;;;;;;26.73;10.23;;;;;;;-1.49;94.64;99398.21;1672590;85;27419;-79
2022/11/30 03:41:48;;;;;;;25.17;9.88;;;;;;;-1.53;94.93;99393.27;1672517;85;25453;-71
2022/11/30 03:44:15;;;;;;;33.67;12.03;;;;;;;-1.52;95.21;99396.25;1672685;85;25619;-81
2022/11/30 03:46:42;;;;;;;50.08;16.48;;;;;;;-1.49;95.18;99393.67;1671098;85;25846;-74
2022/11/30 03:49:08;;;;;;;33.83;12.05;;;;;;;-1.46;95.11;99401.30;1670435;85;25759;-69
2022/11/30 03:51:35;;;;;;;21.80;9.58;;;;;;;-1.42;95.14;99395.80;1642069;87;27469;-75
2022/11/30 03:54:01;;;;;;;30.15;10.53;;;;;;;-1.41;94.98;99396.63;1642278;87;25722;-68
2022/11/30 03:56:29;;;;;;;26.90;11.35;;;;;;;-1.40;94.88;99397.75;1670154;85;25626;-76
2022/11/30 03:58:55;;;;;;;32.95;12.68;;;;;;;-1.41;94.91;99397.43;1642189;87;25753;-69
2022/11/30 04:01:22;;;;;;;25.12;9.28;;;;;;;-1.36;94.75;99395.44;1642206;87;25632;-67
2022/11/30 04:03:51;;;;;;;44.50;15.08;;;;;;;-1.40;94.58;99402.30;1642423;87;27611;-69
2022/11/30 04:06:19;;;;;;;40.48;14.00;;;;;;;-1.38;94.71;99405.61;1642694;87;25597;-70
2022/11/30 04:08:45;;;;;;;38.73;13.95;;;;;;;-1.33;94.65;99403.61;1642428;87;25526;-67
2022/11/30 04:11:11;;;;;;;44.85;14.60;;;;;;;-1.26;94.54;99411.11;1642097;87;25752;-67
2022/11/30 04:13:40;;;;;;;40.12;13.18;;;;;;;-1.32;94.44;99406.59;1642828;87;25737;-70
2022/11/30 04:16:07;;;;;;;41.63;14.33;;;;;;;-1.31;94.58;99405.04;1670423;85;27476;-69
2022/11/30 04:18:35;;;;;;;34.78;12.28;;;;;;;-1.29;94.50;99396.75;1642349;87;25858;-73
2022/11/30 04:21:03;;;;;;;48.17;15.93;;;;;;;-1.39;94.23;99399.39;1642152;87;25689;-71
2022/11/30 04:23:34;;;;;;;24.35;10.80;;;;;;;-1.32;94.11;99399.33;1642156;87;25793;-67
2022/11/30 04:26:07;;;;;;;36.25;12.15;;;;;;;-1.37;94.64;99405.06;1670429;85;32832;-78
2022/11/30 04:28:34;;;;;;;40.28;13.98;;;;;;;-1.39;94.61;99403.42;1642558;87;27492;-78
2022/11/30 04:31:01;;;;;;;38.92;13.78;;;;;;;-1.40;94.75;99403.64;1642200;87;25697;-69
2022/11/30 04:33:28;;;;;;;29.20;9.85;;;;;;;-1.43;94.48;99403.56;1670341;85;25675;-72
2022/11/30 04:35:57;;;;;;;22.65;8.28;;;;;;;-1.51;94.58;99402.46;1642298;87;25784;-81
2022/11/30 04:38:25;;;;;;;45.38;14.47;;;;;;;-1.50;94.98;99406.78;1642539;87;25694;-69
2022/11/30 04:40:52;;;;;;;47.45;17.48;;;;;;;-1.50;94.74;99407.33;1670229;85;27469;-67
2022/11/30 04:43:18;;;;;;;32.88;12.55;;;;;;;-1.51;94.91;99411.87;1670148;85;25660;-72
2022/11/30 04:45:45;;;;;;;44.98;15.78;;;;;;;-1.49;94.93;99415.17;1642500;87;25617;-74
2022/11/30 04:48:12;;;;;;;50.73;16.85;;;;;;;-1.48;94.93;99407.91;1665803;86;25710;-67
2022/11/30 04:50:39;;;;;;;31.62;12.15;;;;;;;-1.43;94.89;99413.48;1665916;86;25621;-67
2022/11/30 04:53:06;;;;;;;37.83;14.43;;;;;;;-1.44;94.85;99421.25;1665859;86;27532;-80
2022/11/30 04:55:36;;;;;;;42.78;16.07;;;;;;;-1.37;94.84;99423.38;1665799;86;25632;-67
2022/11/30 04:58:02;;;;;;;40.83;14.03;;;;;;;-1.35;94.75;99424.50;1666128;86;25727;-68
2022/11/30 05:00:41;;;;;;;39.70;14.53;;;;;;;-1.38;94.60;99424.43;1665798;86;25764;-67
2022/11/30 05:03:08;;;;;;;46.05;14.07;;;;;;;-1.37;94.53;99419.85;1666019;86;25498;-72
2022/11/30 05:05:34;;;;;;;39.65;15.23;;;;;;;-1.42;94.53;99427.22;1666246;86;28219;-67
2022/11/30 05:08:00;;;;;;;61.58;21.27;;;;;;;-1.45;94.63;99429.83;1665797;86;25613;-67
2022/11/30 05:10:28;;;;;;;49.05;16.00;;;;;;;-1.44;94.78;99422.06;1666566;86;25631;-68
2022/11/30 05:12:57;;;;;;;43.58;15.10;;;;;;;-1.44;94.72;99423.41;1666059;86;26422;-67
2022/11/30 05:15:24;;;;;;;43.10;15.45;;;;;;;-1.40;94.93;99425.16;1665971;86;25664;-69
2022/11/30 05:17:50;;;;;;;46.98;17.30;;;;;;;-1.35;94.91;99424.50;1665890;86;27485;-79
2022/11/30 05:20:18;;;;;;;41.23;15.72;;;;;;;-1.37;94.45;99424.72;1666015;86;25651;-71
2022/11/30 05:22:44;;;;;;;39.48;15.23;;;;;;;-1.36;94.42;99425.56;1665845;86;25634;-69
2022/11/30 05:25:11;;;;;;;27.62;11.63;;;;;;;-1.36;94.28;99424.21;1665842;86;25900;-73
2022/11/30 05:27:37;;;;;;;37.78;13.95;;;;;;;-1.43;93.97;99422.39;1666078;86;25422;-72
2022/11/30 05:30:06;;;;;;;41.77;14.68;;;;;;;-1.50;94.20;99418.88;1665813;86;27523;-67
2022/11/30 05:32:33;;;;;;;44.65;15.85;;;;;;;-1.48;94.27;99425.39;1666066;86;25691;-69
2022/11/30 05:35:00;;;;;;;49.77;15.15;;;;;;;-1.42;94.37;99428.05;1666111;86;25463;-81
2022/11/30 05:37:26;;;;;;;24.67;10.18;;;;;;;-1.36;94.26;99431.73;1665801;86;25744;-74
2022/11/30 05:39:53;;;;;;;33.28;12.58;;;;;;;-1.37;94.07;99427.92;1665966;86;25430;-81
2022/11/30 05:42:19;;;;;;;27.77;9.88;;;;;;;-1.43;93.92;99425.08;1665857;86;27467;-67
2022/11/30 05:44:46;;;;;;;28.55;10.63;;;;;;;-1.45;93.84;99426.30;1665787;86;25692;-73
2022/11/30 05:47:13;;;;;;;41.42;13.90;;;;;;;-1.48;94.00;99434.29;1666936;85;25481;-69
2022/11/30 05:49:40;;;;;;;47.53;16.02;;;;;;;-1.47;93.92;99436.47;1637787;87;25765;-67
2022/11/30 05:52:06;;;;;;;42.38;14.78;;;;;;;-1.39;93.99;99435.69;1637544;87;25749;-73
2022/11/30 05:54:34;;;;;;;25.68;9.38;;;;;;;-1.33;93.85;99442.61;1637556;87;27406;-72
2022/11/30 05:57:00;;;;;;;35.40;13.72;;;;;;;-1.30;93.48;99444.83;1637400;87;25487;-78
2022/11/30 05:59:27;;;;;;;34.25;12.55;;;;;;;-1.30;93.57;99451.56;1665650;86;25502;-69
2022/11/30 06:01:54;;;;;;;41.60;15.10;;;;;;;-1.24;93.68;99452.05;1637520;87;25775;-75
2022/11/30 06:04:21;;;;;;;20.12;8.20;;;;;;;-1.24;93.40;99452.05;1637913;87;25723;-67
2022/11/30 06:06:48;;;;;;;35.05;12.47;;;;;;;-1.27;93.31;99452.47;1637677;87;27007;-68
2022/11/30 06:09:15;;;;;;;37.73;13.13;;;;;;;-1.34;93.02;99454.38;1637522;87;25677;-71
2022/11/30 06:11:41;;;;;;;20.80;8.73;;;;;;;-1.40;93.35;99456.91;1637454;87;25640;-79
2022/11/30 06:14:08;;;;;;;22.05;9.60;;;;;;;-1.40;93.30;99463.63;1637519;87;25747;-76
2022/11/30 06:16:38;;;;;;;37.67;14.65;;;;;;;-1.48;93.06;99453.62;1637569;87;25489;-76
2022/11/30 06:19:05;;;;;;;35.43;13.00;;;;;;;-1.50;93.46;99461.90;1637628;87;27403;-67
2022/11/30 06:21:31;;;;;;;29.95;10.38;;;;;;;-1.47;93.85;99457.98;1637411;87;25640;-76
2022/11/30 06:23:57;;;;;;;40.98;14.35;;;;;;;-1.46;93.50;99458.27;1638807;85;25709;-77
2022/11/30 06:26:24;;;;;;;41.02;14.35;;;;;;;-1.48;93.53;99457.14;1657129;86;26412;-82
2022/11/30 06:28:50;;;;;;;28.12;11.22;;;;;;;-1.47;93.56;99457.98;1662890;86;25694;-69
2022/11/30 06:31:17;;;;;;;27.32;8.95;;;;;;;-1.54;93.36;99461.52;1662673;86;27476;-68
2022/11/30 06:33:43;;;;;;;34.10;12.30;;;;;;;-1.55;93.51;99463.08;1662795;86;25440;-73
2022/11/30 06:36:10;;;;;;;31.73;12.70;;;;;;;-1.62;93.58;99459.06;1662984;86;25473;-79
2022/11/30 06:38:37;;;;;;;25.40;10.48;;;;;;;-1.62;93.68;99460.94;1662949;86;27809;-68
2022/11/30 06:41:07;;;;;;;39.95;13.70;;;;;;;-1.64;93.94;99458.47;1663159;86;25619;-80
2022/11/30 06:43:38;;;;;;;33.23;12.93;;;;;;;-1.62;93.99;99456.38;1663360;86;26894;-85
2022/11/30 06:46:06;;;;;;;32.88;12.40;;;;;;;-1.57;94.08;99456.57;1663260;86;25525;-84
2022/11/30 06:48:34;;;;;;;44.27;14.43;;;;;;;-1.65;94.01;99461.66;1664789;86;25644;-79
2022/11/30 06:51:06;;;;;;;52.27;19.55;;;;;;;-1.67;94.06;99465.61;1644151;86;25746;-79
2022/11/30 06:53:33;;;;;;;44.08;16.37;;;;;;;-1.64;94.27;99464.65;1665367;86;25170;-75
2022/11/30 06:56:06;;;;;;;33.58;13.80;;;;;;;-1.60;94.17;99466.41;1665054;86;29622;-83
2022/11/30 06:58:33;;;;;;;37.35;14.33;;;;;;;-1.53;94.39;99460.98;1665337;86;25698;-84
2022/11/30 07:00:59;;;;;;;29.35;10.45;;;;;;;-1.50;94.12;99466.47;1665320;86;25453;-82
2022/11/30 07:03:25;;;;;;;42.85;15.05;;;;;;;-1.51;93.98;99464.29;1665002;86;27796;-80
2022/11/30 07:05:53;;;;;;;40.38;15.85;;;;;;;-1.53;94.01;99455.09;1665040;86;25700;-80
2022/11/30 07:08:19;;;;;;;40.38;16.10;;;;;;;-1.51;94.12;99464.29;1665212;86;27447;-70
2022/11/30 07:10:47;;;;;;;33.60;12.45;;;;;;;-1.50;94.08;99471.84;1664969;86;25668;-84
2022/11/30 07:13:16;;;;;;;25.95;9.55;;;;;;;-1.49;93.99;99473.48;1665020;86;25693;-75
2022/11/30 07:15:44;;;;;;;34.92;11.35;;;;;;;-1.48;93.98;99471.93;1665362;86;25758;-81
2022/11/30 07:18:11;;;;;;;22.13;9.85;;;;;;;-1.55;94.01;99471.95;1665363;86;25661;-78
2022/11/30 07:20:38;;;;;;;38.70;13.35;;;;;;;-1.62;94.00;99474.38;1662667;86;28299;-79
2022/11/30 07:26:06;;;;;;;37.83;14.38;;;;;;;-1.64;94.23;99468.68;1665099;86;25181;-82
2022/11/30 07:28:37;;;;;;;23.73;10.80;;;;;;;-1.63;94.32;99466.83;1665027;86;25720;-83
2022/11/30 07:31:28;;;;;;;29.77;12.47;;;;;;;-1.68;94.02;99463.44;1664914;86;25737;-84
2022/11/30 07:33:58;;;;;;;21.68;9.38;;;;;;;-1.74;93.98;99451.35;1664477;86;29547;-84
2022/11/30 07:36:26;;;;;;;28.12;12.65;;;;;;;-1.77;94.05;99445.89;1664636;86;25325;-83
2022/11/30 07:38:52;;;;;;;37.03;13.78;;;;;;;-1.78;94.12;99442.91;1664861;86;25795;-81
2022/11/30 07:41:18;;;;;;;23.42;9.55;;;;;;;-1.78;94.28;99450.44;1664932;86;25843;-83
2022/11/30 07:43:45;;;;;;;23.73;9.43;;;;;;;-1.78;94.15;99446.41;1664926;86;25725;-83
2022/11/30 07:46:14;;;;;;;18.07;6.85;;;;;;;-1.77;94.21;99447.23;1664501;86;27431;-79
2022/11/30 07:48:41;;;;;;;40.52;16.02;;;;;;;-1.79;94.40;99444.77;1669067;85;25827;-80
2022/11/30 07:51:12;;;;;;;31.57;12.18;;;;;;;-1.73;94.51;99460.55;1670665;85;25830;-82
2022/11/30 07:53:39;;;;;;;34.73;13.43;;;;;;;-1.71;94.52;99467.89;1670472;85;26445;-83
2022/11/30 07:56:10;;;;;;;28.55;10.23;;;;;;;-1.64;94.51;99480.78;1670695;85;25228;-83
2022/11/30 07:58:37;;;;;;;28.83;12.23;;;;;;;-1.58;94.20;99468.88;1670899;85;27406;-83
2022/11/30 08:01:20;;;;;;;32.60;12.73;;;;;;;-1.56;94.19;99467.63;1670635;85;25539;-83
2022/11/30 08:03:48;;;;;;;52.05;18.15;;;;;;;-1.51;94.02;99465.64;1670326;85;25689;-83
2022/11/30 08:06:19;;;;;;;44.63;16.30;;;;;;;-1.48;94.09;99478.65;1670603;85;25832;-83
2022/11/30 08:08:48;;;;;;;45.03;15.68;;;;;;;-1.32;94.28;99474.63;1670859;85;25647;-81
2022/11/30 08:11:20;;;;;;;42.90;15.75;;;;;;;-1.28;94.04;99475.04;1671031;85;27431;-81
2022/11/30 08:13:47;;;;;;;29.15;11.80;;;;;;;-1.24;93.65;99476.25;1671080;85;25161;-77
2022/11/30 08:16:18;;;;;;;31.90;11.15;;;;;;;-1.23;93.30;99477.91;1671047;85;25658;-77
2022/11/30 08:18:44;;;;;;;33.48;12.43;;;;;;;-1.17;92.96;99490.51;1667586;85;25813;-78
2022/11/30 08:21:14;;;;;;;20.15;8.88;;;;;;;-1.17;93.42;99477.06;1670976;85;25468;-78
2022/11/30 08:23:43;;;;;;;28.90;11.43;;;;;;;-1.19;92.56;99483.16;1671212;85;27446;-82
2022/11/30 08:26:14;;;;;;;32.53;12.68;;;;;;;-1.20;92.72;99480.17;1671100;85;25701;-79
2022/11/30 08:28:44;;;;;;;35.55;12.45;;;;;;;-1.17;92.69;99481.09;1671399;85;25694;-81
2022/11/30 08:31:14;;;;;;;21.95;8.63;;;;;;;-1.22;92.47;99479.56;1670769;85;25797;-79
2022/11/30 08:33:42;;;;;;;12.28;5.25;;;;;;;-1.22;92.73;99483.59;1671239;85;25704;-75
2022/11/30 08:36:12;;;;;;;36.70;14.65;;;;;;;-1.20;92.74;99484.72;1670771;85;27448;-81
2022/11/30 08:38:40;;;;;;;40.12;15.10;;;;;;;-1.15;93.13;99487.60;1671188;85;25714;-82
2022/11/30 08:41:09;;;;;;;25.68;10.70;;;;;;;-1.08;92.98;99489.72;1671164;85;25705;-80
2022/11/30 08:43:36;;;;;;;14.80;6.60;;;;;;;-1.12;92.19;99498.44;1671136;85;25709;-81
2022/11/30 08:46:06;;;;;;;36.20;14.13;;;;;;;-1.21;92.18;99492.50;1671124;85;25637;-77
2022/11/30 08:48:34;;;;;;;16.45;6.60;;;;;;;-1.16;92.25;99494.84;1670863;85;27547;-69
2022/11/30 08:51:02;;;;;;;27.32;9.80;;;;;;;-1.14;92.24;99497.31;1670736;85;25670;-75
2022/11/30 08:53:29;;;;;;;31.42;11.68;;;;;;;-1.15;91.96;99497.02;1671130;85;25667;-75
2022/11/30 08:55:58;;;;;;;40.80;14.85;;;;;;;-1.20;91.82;99504.38;1670770;85;25807;-77
2022/11/30 08:58:32;;;;;;;28.38;10.88;;;;;;;-1.28;92.12;99495.20;1670968;85;25490;-81
2022/11/30 09:01:27;;;;;;;35.55;13.13;;;;;;;-1.36;91.99;99504.34;1671126;85;27340;-77
2022/11/30 09:03:58;;;;;;;25.57;10.45;;;;;;;-1.36;92.53;99500.31;1670860;85;25698;-71
2022/11/30 09:06:30;;;;;;;34.92;14.10;;;;;;;-1.28;92.38;99511.34;1670954;85;25574;-80
2022/11/30 09:08:58;;;;;;;30.75;12.70;;;;;;;-1.31;92.21;99503.70;1671092;85;25833;-78
2022/11/30 09:11:32;;;;;;;22.70;9.13;;;;;;;-1.34;92.33;99505.47;1671177;85;25508;-75
2022/11/30 09:14:03;;;;;;;19.35;8.43;;;;;;;-1.37;92.21;99512.11;1670942;85;27569;-81
2022/11/30 09:16:30;;;;;;;26.35;10.63;;;;;;;-1.36;92.36;99515.09;1671334;85;25700;-81
2022/11/30 09:18:57;;;;;;;31.60;14.13;;;;;;;-1.36;92.28;99507.57;1670930;85;25179;-81
2022/11/30 09:21:25;;;;;;;43.65;15.55;;;;;;;-1.33;92.39;99504.45;1670920;85;25794;-71
2022/11/30 09:23:54;;;;;;;41.70;15.98;;;;;;;-1.27;92.54;99505.75;1671416;85;25409;-77
2022/11/30 09:26:23;;;;;;;34.35;11.10;;;;;;;-1.23;92.44;99506.16;1671226;85;28065;-75
2022/11/30 09:28:53;;;;;;;53.60;19.20;;;;;;;-1.22;92.35;99500.23;1670818;85;25753;-77
2022/11/30 09:31:23;;;;;;;51.85;19.95;;;;;;;-1.17;92.50;99504.47;1671362;85;25659;-77
2022/11/30 09:34:14;;;;;;;31.25;11.78;;;;;;;-1.08;92.55;99503.69;1671320;85;25782;-79
2022/11/30 09:36:38;;;;;;;42.73;17.65;;;;;;;-1.07;92.01;99500.78;1669527;85;25665;-69
2022/11/30 09:39:05;;;;;;;31.25;12.95;;;;;;;-1.09;92.17;99510.12;1671038;85;28023;-78
2022/11/30 09:42:12;;;;;;;33.88;13.95;;;;;;;-1.16;91.57;99496.18;1670969;85;25910;-82
2022/11/30 09:45:03;;;;;;;24.47;9.65;;;;;;;-1.15;91.87;99505.09;1648764;85;25471;-82
2022/11/30 09:48:01;;;;;;;33.30;12.95;;;;;;;-1.17;91.75;99507.99;1670790;85;25759;-82
2022/11/30 09:50:32;;;;;;;30.32;12.63;;;;;;;-1.21;91.59;99500.02;1664947;86;25176;-76
2022/11/30 09:53:06;;;;;;;30.82;12.10;;;;;;;-1.29;91.56;99503.78;1665761;86;27407;-82
2022/11/30 09:55:38;;;;;;;37.20;14.85;;;;;;;-1.32;91.64;99499.38;1665456;86;25472;-76
2022/11/30 09:58:08;;;;;;;14.90;6.17;;;;;;;-1.37;91.80;99505.39;1665285;86;25662;-80
2022/11/30 10:00:35;;;;;;;36.63;13.85;;;;;;;-1.39;91.71;99509.64;1665410;86;25666;-82
2022/11/30 10:03:05;;;;;;;33.95;12.98;;;;;;;-1.42;91.73;99507.38;1665127;86;25169;-79
2022/11/30 10:06:01;;;;;;;24.65;9.78;;;;;;;-1.43;91.65;99504.90;1665462;86;27590;-79
2022/11/30 10:09:00;;;;;;;42.93;15.85;;;;;;;-1.49;91.68;99503.06;1635031;87;25380;-76
2022/11/30 10:11:46;;;;;;;29.52;12.88;;;;;;;-1.47;91.95;99508.52;1642999;87;25843;-80
2022/11/30 10:14:38;;;;;;;22.75;9.80;;;;;;;-1.49;91.98;99503.89;1642989;87;25672;-75
2022/11/30 10:17:12;;;;;;;33.48;13.85;;;;;;;-1.55;91.99;99498.83;1643438;87;25775;-76
2022/11/30 10:20:01;;;;;;;40.30;17.77;;;;;;;-1.47;92.13;99501.80;1642385;87;27502;-80
2022/11/30 10:22:39;;;;;;;30.08;13.58;;;;;;;-1.34;92.54;99506.81;1642371;87;25561;-79
2022/11/30 10:25:28;;;;;;;93.75;45.92;;;;;;;-1.28;92.12;99508.14;1643693;87;25734;-75
2022/11/30 10:28:07;;;;;;;117.70;65.67;;;;;;;-1.32;91.66;99502.06;1643366;87;25479;-80
2022/11/30 10:30:36;;;;;;;34.92;17.87;;;;;;;-1.36;91.52;99492.23;1643423;87;25751;-80
2022/11/30 10:33:11;;;;;;;46.08;17.17;;;;;;;-1.39;91.55;99498.87;1643417;87;28374;-82
2022/11/30 10:35:47;;;;;;;22.65;9.03;;;;;;;-1.36;91.73;99502.20;1636457;87;25740;-82
2022/11/30 10:38:30;;;;;;;38.25;16.75;;;;;;;-1.37;91.45;99502.70;1643536;87;25550;-80
2022/11/30 10:41:03;;;;;;;36.28;15.28;;;;;;;-1.36;91.62;99494.93;1643743;87;25807;-82
2022/11/30 10:43:50;;;;;;;29.52;11.85;;;;;;;-1.27;91.52;99493.65;1614527;88;25520;-78
2022/11/30 10:46:20;;;;;;;33.48;12.93;;;;;;;-1.24;91.17;99497.77;1581253;89;29655;-77
2022/11/30 10:48:54;;;;;;;41.15;15.53;;;;;;;-1.20;91.16;99494.14;1600303;89;35363;-76
2022/11/30 10:51:22;;;;;;;56.02;18.20;;;;;;;-1.14;91.74;99496.80;1604121;89;25547;-81
2022/11/30 10:53:54;;;;;;;35.38;14.35;;;;;;;-1.12;91.10;99497.09;1603600;89;27911;-80
2022/11/30 10:56:30;;;;;;;38.38;14.85;;;;;;;-1.18;90.68;99496.10;1580875;89;25666;-75
2022/11/30 10:59:05;;;;;;;31.02;13.83;;;;;;;-1.17;90.84;99500.43;1602541;89;25726;-78
2022/11/30 11:01:38;;;;;;;21.40;9.85;;;;;;;-1.20;90.63;99499.52;1603764;89;25609;-76
2022/11/30 11:04:18;;;;;;;31.55;12.98;;;;;;;-1.25;90.64;99500.16;1603777;89;25775;-81
2022/11/30 11:06:57;;;;;;;34.03;14.38;;;;;;;-1.25;90.77;99493.44;1604313;89;25695;-81
2022/11/30 11:09:45;;;;;;;64.15;26.50;;;;;;;-1.19;90.86;99492.58;1603741;89;25794;-81
2022/11/30 11:12:27;;;;;;;53.28;17.17;;;;;;;-1.10;91.31;99494.48;1603581;89;27492;-81
2022/11/30 11:15:22;;;;;;;36.15;14.73;;;;;;;-1.04;91.00;99492.79;1581699;90;26076;-81
2022/11/30 11:17:50;;;;;;;31.27;11.60;;;;;;;-1.01;90.88;99489.67;1582344;90;25759;-81
2022/11/30 11:20:43;;;;;;;65.47;22.82;;;;;;;-1.03;90.41;99487.19;1612601;88;25792;-80
2022/11/30 11:23:37;;;;;;;48.48;17.87;;;;;;;-0.96;91.00;99488.51;1613339;88;25559;-81
2022/11/30 11:26:07;;;;;;;22.85;9.43;;;;;;;-0.88;90.76;99487.42;1613120;88;27367;-82
2022/11/30 11:28:36;;;;;;;33.28;13.08;;;;;;;-0.83;90.39;99486.77;1592090;88;25531;-79
2022/11/30 11:31:24;;;;;;;22.52;9.83;;;;;;;-0.83;89.98;99491.65;1613341;88;25574;-81
2022/11/30 11:33:53;;;;;;;19.40;9.03;;;;;;;-0.74;89.99;99492.71;1586455;90;26535;-82
2022/11/30 11:36:27;;;;;;;37.75;14.65;;;;;;;-0.76;89.21;99494.27;1613344;88;25562;-82
2022/11/30 11:38:54;;;;;;;35.38;14.33;;;;;;;-0.78;89.54;99493.66;1612998;88;27458;-78